KORD/ORD METAR and TAF weather

Enter ICAO airport designator
Station Type Date Time Source
KORD METAR 2019/04/25 15:51 UTC NOAA

KORD 251551Z VRB03KT 10SM SCT250 17/04 A2978 RMK AO2 SLP084 T01720039


Station Type Date Time Source
KORD Decoded METAR 2019/04/25 15:51 UTC NOAA

CHICAGO O'HARE INTERNATIONAL, IL, United States (KORD) 41-59N 087-55W 200M
Apr 25, 2019 - 11:51 AM EDT / 2019.04.25 1551 UTC
Wind: Variable at 3 MPH (3 KT):0
Visibility: 10 mile(s):0
Sky conditions: partly cloudy
Temperature: 63.0 F (17.2 C)
Dew Point: 39.0 F (3.9 C)
Relative Humidity: 41%
Pressure (altimeter): 29.78 in. Hg (1008 hPa)
ob: KORD 251551Z VRB03KT 10SM SCT250 17/04 A2978 RMK AO2 SLP084 T01720039
cycle: 16

Station Type Date Time Source
KORD TAF 2019/04/25 15:59 UTC NOAA

TAF
AMD KORD 251459Z 2515/2618 VRB03KT P6SM SCT250
FM251900 08009KT P6SM SCT040 BKN250
FM260000 04008KT P6SM SCT040 BKN100
FM260300 36014G21KT 5SM -SHRA SCT020 OVC030
FM260800 34012KT P6SM SCT080
FM261400 32015G24KT P6SM SKC

Example: see airport list